createdAt,value
2022-12-08T00:01:39.914Z,1.47
2022-12-08T00:04:25.249Z,3.27
2022-12-08T00:07:29.106Z,1.00
2022-12-08T00:10:46.632Z,2.30
2022-12-08T00:13:19.572Z,2.27
2022-12-08T00:16:05.079Z,1.93
2022-12-08T00:18:50.386Z,2.10
2022-12-08T00:21:35.784Z,1.70
2022-12-08T00:24:22.343Z,1.93
2022-12-08T00:27:09.453Z,1.60
2022-12-08T00:29:55.341Z,3.60
2022-12-08T00:32:40.657Z,2.63
2022-12-08T00:35:25.991Z,4.33
2022-12-08T00:38:11.404Z,2.43
2022-12-08T00:40:56.634Z,2.00
2022-12-08T00:43:42.343Z,2.10
2022-12-08T00:46:28.227Z,1.97
2022-12-08T00:49:14.823Z,1.60
2022-12-08T00:52:00.516Z,1.33
2022-12-08T00:54:45.721Z,1.10
2022-12-08T00:57:31.163Z,1.83
2022-12-08T01:00:16.719Z,2.23
2022-12-08T01:03:02.219Z,1.87
2022-12-08T01:05:47.413Z,1.27
2022-12-08T01:08:33.176Z,1.10
2022-12-08T01:11:19.575Z,1.60
2022-12-08T01:14:05.111Z,1.10
2022-12-08T01:16:50.484Z,2.03
2022-12-08T01:19:35.722Z,1.30
2022-12-08T01:22:20.883Z,1.23
2022-12-08T01:25:06.749Z,1.60
2022-12-08T01:27:52.797Z,1.50
2022-12-08T01:30:39.192Z,1.30
2022-12-08T01:33:25.052Z,1.70
2022-12-08T01:36:28.334Z,1.57
2022-12-08T01:39:18.995Z,1.65
2022-12-08T01:42:04.793Z,1.27
2022-12-08T01:44:55.855Z,1.50
2022-12-08T01:47:46.040Z,1.53
2022-12-08T01:50:32.462Z,1.40
2022-12-08T01:53:23.324Z,1.10
2022-12-08T01:56:14.477Z,1.53
2022-12-08T01:59:00.343Z,1.00
2022-12-08T02:01:46.221Z,1.43
2022-12-08T02:04:31.354Z,1.87
2022-12-08T02:07:17.883Z,1.53
2022-12-08T02:10:04.710Z,1.87
2022-12-08T02:12:56.291Z,2.47
2022-12-08T02:15:54.573Z,1.60
2022-12-08T02:18:39.946Z,1.10
2022-12-08T02:21:44.091Z,2.10
2022-12-08T02:24:40.672Z,2.27
2022-12-08T02:27:57.644Z,2.50
2022-12-08T02:31:16.951Z,1.57
2022-12-08T02:34:37.841Z,1.20
2022-12-08T02:37:31.027Z,1.90
2022-12-08T02:40:35.511Z,2.38
2022-12-08T02:43:38.319Z,1.10
2022-12-08T02:46:40.224Z,1.57
2022-12-08T02:49:31.224Z,1.20
2022-12-08T02:52:19.680Z,1.23
2022-12-08T02:55:23.172Z,1.80
2022-12-08T02:58:36.549Z,1.23
2022-12-08T03:01:35.108Z,1.00
2022-12-08T03:04:46.475Z,2.23
2022-12-08T03:07:47.500Z,0.97
2022-12-08T03:10:40.549Z,1.80
2022-12-08T03:13:34.484Z,2.30
2022-12-08T03:16:30.764Z,1.53
2022-12-08T03:19:20.130Z,2.53
2022-12-08T03:22:07.452Z,3.00
2022-12-08T03:24:53.971Z,2.40
2022-12-08T03:27:39.688Z,3.00
2022-12-08T03:30:25.357Z,4.73
2022-12-08T03:33:19.152Z,1.53
2022-12-08T03:36:08.283Z,2.20
2022-12-08T03:38:54.723Z,2.03
2022-12-08T03:41:40.010Z,2.23
2022-12-08T03:44:25.444Z,1.90
2022-12-08T03:47:10.683Z,1.80
2022-12-08T03:49:55.966Z,3.17
2022-12-08T03:52:41.209Z,1.83
2022-12-08T03:55:26.414Z,2.30
2022-12-08T03:58:11.663Z,2.70
2022-12-08T04:00:56.896Z,2.67
2022-12-08T04:03:42.454Z,3.23
2022-12-08T04:06:27.912Z,3.60
2022-12-08T04:09:13.495Z,2.30
2022-12-08T04:11:58.782Z,1.87
2022-12-08T04:14:44.155Z,4.13
2022-12-08T04:17:29.521Z,2.50
2022-12-08T04:20:14.709Z,3.77
2022-12-08T04:23:00.078Z,3.07
2022-12-08T04:25:45.976Z,2.10
2022-12-08T04:28:31.910Z,2.63
2022-12-08T04:31:17.242Z,3.03
2022-12-08T04:34:02.359Z,4.07
2022-12-08T04:36:47.512Z,1.70
2022-12-08T04:39:32.885Z,1.70
2022-12-08T04:42:18.111Z,2.90
2022-12-08T04:53:20.772Z,2.67
2022-12-08T04:56:11.346Z,2.17
2022-12-08T04:58:55.908Z,1.80
2022-12-08T05:01:40.399Z,2.10
2022-12-08T05:04:25.474Z,7.70
2022-12-08T05:07:10.287Z,3.07
2022-12-08T05:09:55.248Z,3.13
2022-12-08T05:17:46.109Z,3.60
2022-12-08T05:20:30.855Z,2.47
2022-12-08T05:23:15.606Z,2.10
2022-12-08T05:26:01.047Z,3.07
2022-12-08T05:28:46.443Z,2.70
2022-12-08T05:31:32.492Z,2.20
2022-12-08T05:34:18.123Z,1.92
2022-12-08T05:37:03.578Z,2.03
2022-12-08T05:39:48.812Z,5.33
2022-12-08T05:42:34.130Z,3.97
2022-12-08T05:45:19.250Z,3.73
2022-12-08T05:48:04.969Z,3.70
2022-12-08T05:50:51.851Z,3.83
2022-12-08T05:53:37.489Z,4.87
2022-12-08T05:56:23.461Z,3.20
2022-12-08T05:59:10.534Z,4.20
2022-12-08T06:01:55.835Z,7.37
2022-12-08T06:04:41.453Z,4.10
2022-12-08T06:07:26.965Z,6.90
2022-12-08T06:10:12.609Z,5.90
2022-12-08T06:12:58.172Z,6.50
2022-12-08T06:15:43.568Z,6.00
2022-12-08T06:18:32.687Z,6.30
2022-12-08T06:21:19.198Z,7.07
2022-12-08T06:24:04.811Z,7.13
2022-12-08T06:26:50.465Z,4.53
2022-12-08T06:29:35.651Z,7.80
2022-12-08T06:32:27.114Z,8.23
2022-12-08T06:35:13.300Z,5.97
2022-12-08T06:37:58.892Z,6.90
2022-12-08T06:40:44.154Z,5.97
2022-12-08T06:43:29.391Z,7.77
2022-12-08T06:46:17.025Z,9.30
2022-12-08T06:49:02.466Z,6.20
2022-12-08T06:51:47.653Z,5.93
2022-12-08T06:54:32.810Z,9.07
2022-12-08T06:57:18.674Z,5.87
2022-12-08T07:00:07.963Z,5.13
2022-12-08T07:02:53.730Z,6.20
2022-12-08T07:05:39.639Z,7.53
2022-12-08T07:08:25.190Z,6.13
2022-12-08T07:11:14.153Z,5.37
2022-12-08T07:14:01.837Z,6.57
2022-12-08T07:16:47.216Z,5.40
2022-12-08T07:19:33.099Z,4.63
2022-12-08T07:22:18.612Z,6.67
2022-12-08T07:25:04.152Z,5.83
2022-12-08T07:27:51.617Z,7.70
2022-12-08T07:30:37.912Z,5.10
2022-12-08T07:33:23.212Z,5.37
2022-12-08T07:36:09.061Z,4.43
2022-12-08T07:38:54.524Z,6.83
2022-12-08T07:41:39.910Z,5.43
2022-12-08T07:44:25.289Z,5.33
2022-12-08T07:47:10.465Z,6.37
2022-12-08T07:49:55.876Z,7.37
2022-12-08T07:52:41.195Z,7.67
2022-12-08T07:55:26.850Z,5.37
2022-12-08T07:58:12.341Z,4.93
2022-12-08T08:00:57.643Z,6.67
2022-12-08T08:03:43.383Z,4.47
2022-12-08T08:06:28.870Z,5.70
2022-12-08T08:09:14.088Z,4.80
2022-12-08T08:12:28.857Z,4.30
2022-12-08T08:15:10.234Z,5.57
2022-12-08T08:17:55.497Z,5.23
2022-12-08T08:20:41.287Z,4.00
2022-12-08T08:23:27.404Z,3.83
2022-12-08T08:26:13.772Z,3.30
2022-12-08T08:28:59.461Z,4.17
2022-12-08T08:31:44.802Z,3.43
2022-12-08T08:34:30.218Z,4.60
2022-12-08T08:37:15.567Z,3.43
2022-12-08T08:40:01.609Z,3.43
2022-12-08T08:42:47.544Z,3.77
2022-12-08T08:45:33.860Z,3.37
2022-12-08T08:48:19.141Z,4.03
2022-12-08T08:51:09.899Z,4.03
2022-12-08T08:53:55.516Z,6.23
2022-12-08T08:56:40.650Z,4.03
2022-12-08T08:59:26.927Z,5.20
2022-12-08T09:02:18.344Z,4.03
2022-12-08T09:05:06.368Z,3.00
2022-12-08T09:07:51.578Z,5.30
2022-12-08T09:10:37.265Z,4.20
2022-12-08T09:13:22.789Z,4.67
2022-12-08T09:16:10.999Z,3.33
2022-12-08T09:18:56.435Z,4.43
2022-12-08T09:21:41.661Z,3.23
2022-12-08T09:24:27.001Z,3.07
2022-12-08T09:27:12.219Z,3.03
2022-12-08T09:29:57.500Z,3.80
2022-12-08T09:32:42.863Z,3.43
2022-12-08T09:35:29.254Z,4.00
2022-12-08T09:38:15.060Z,3.87
2022-12-08T09:41:04.179Z,2.83
2022-12-08T09:44:15.016Z,3.57
2022-12-08T09:47:03.578Z,2.73
2022-12-08T09:49:58.543Z,3.67
2022-12-08T09:53:08.964Z,5.20
2022-12-08T09:55:59.054Z,2.90
2022-12-08T09:58:57.126Z,3.10
2022-12-08T10:01:43.101Z,4.13
2022-12-08T10:04:37.430Z,3.17
2022-12-08T10:07:37.813Z,2.33
2022-12-08T10:10:47.457Z,2.33
2022-12-08T10:13:54.241Z,2.63
2022-12-08T10:16:44.573Z,2.63
2022-12-08T10:19:32.585Z,3.33
2022-12-08T10:22:25.157Z,2.50
2022-12-08T10:25:19.467Z,3.13
2022-12-08T10:28:04.877Z,1.92
2022-12-08T10:30:50.319Z,2.20
2022-12-08T10:33:35.663Z,3.20
2022-12-08T10:36:20.884Z,3.27
2022-12-08T10:39:29.212Z,2.30
2022-12-08T10:42:14.515Z,2.37
2022-12-08T10:45:09.036Z,2.60
2022-12-08T10:47:57.445Z,2.10
2022-12-08T10:50:53.014Z,1.80
2022-12-08T10:53:46.877Z,2.90
2022-12-08T10:56:33.286Z,1.80
2022-12-08T10:59:19.354Z,3.10
2022-12-08T11:02:19.427Z,2.67
2022-12-08T11:05:04.860Z,1.60
2022-12-08T11:07:53.785Z,2.07
2022-12-08T11:10:44.800Z,2.53
2022-12-08T11:13:30.598Z,2.33
2022-12-08T11:16:17.620Z,2.27
2022-12-08T11:19:08.234Z,2.13
2022-12-08T11:21:54.438Z,1.90
2022-12-08T11:24:39.594Z,3.20
2022-12-08T11:27:24.956Z,3.90
2022-12-08T11:30:18.886Z,2.70
2022-12-08T11:33:19.459Z,1.97
2022-12-08T11:36:09.742Z,2.50
2022-12-08T11:38:59.621Z,2.63
2022-12-08T11:41:46.540Z,2.07
2022-12-08T11:44:42.379Z,4.67
2022-12-08T11:47:55.826Z,2.33
2022-12-08T11:50:47.179Z,1.70
2022-12-08T11:53:52.112Z,2.17
2022-12-08T11:56:42.352Z,2.67
2022-12-08T11:59:32.347Z,2.30
2022-12-08T12:02:24.330Z,1.60
2022-12-08T12:05:23.589Z,1.67
2022-12-08T12:08:30.587Z,2.33
2022-12-08T12:12:07.080Z,2.10
2022-12-08T12:15:36.770Z,2.27
2022-12-08T12:18:31.538Z,1.37
2022-12-08T12:21:22.722Z,1.90
2022-12-08T12:24:26.103Z,1.80
2022-12-08T12:27:13.583Z,2.80
2022-12-08T12:30:02.879Z,1.17
2022-12-08T12:32:55.176Z,1.37
2022-12-08T12:35:47.960Z,2.50
2022-12-08T12:38:55.980Z,2.80
2022-12-08T12:41:52.562Z,2.30
2022-12-08T12:44:39.819Z,2.20
2022-12-08T12:47:56.248Z,1.83
2022-12-08T12:50:46.154Z,2.47
2022-12-08T12:53:37.455Z,1.63
2022-12-08T12:57:17.932Z,1.50
2022-12-08T13:00:03.285Z,1.60
2022-12-08T13:02:50.858Z,2.13
2022-12-08T13:05:49.832Z,2.00
2022-12-08T13:08:35.667Z,1.80
2022-12-08T13:11:22.397Z,1.43
2022-12-08T13:14:26.990Z,1.53
2022-12-08T13:17:17.029Z,1.70
2022-12-08T13:20:06.734Z,2.00
2022-12-08T13:23:01.805Z,1.93
2022-12-08T13:25:48.727Z,1.33
2022-12-08T13:28:34.057Z,3.33
2022-12-08T13:31:43.886Z,3.83
2022-12-08T13:35:00.126Z,1.37
2022-12-08T13:37:54.803Z,2.20
2022-12-08T13:40:42.427Z,1.50
2022-12-08T13:44:50.323Z,2.27
2022-12-08T13:47:32.065Z,2.17
2022-12-08T13:57:06.797Z,1.88
2022-12-08T13:59:50.513Z,2.23
2022-12-08T14:02:45.341Z,1.90
2022-12-08T14:06:11.107Z,2.50
2022-12-08T14:09:06.961Z,4.43
2022-12-08T14:12:03.457Z,2.73
2022-12-08T14:15:04.731Z,8.23
2022-12-08T14:17:56.038Z,3.80
2022-12-08T14:21:18.966Z,8.33
2022-12-08T14:23:47.408Z,5.07
2022-12-08T14:26:35.665Z,6.17
2022-12-08T14:29:33.202Z,5.83
2022-12-08T14:32:26.852Z,6.20
2022-12-08T14:35:20.735Z,6.63
2022-12-08T14:38:13.751Z,5.50
2022-12-08T14:41:03.469Z,1.55
2022-12-08T14:43:58.987Z,3.60
2022-12-08T14:47:05.794Z,5.80
2022-12-08T14:49:53.041Z,4.53
2022-12-08T14:52:44.974Z,6.93
2022-12-08T14:55:38.802Z,5.63
2022-12-08T14:58:31.061Z,6.90
2022-12-08T15:01:22.491Z,7.97
2022-12-08T15:04:27.609Z,10.00
2022-12-08T15:07:22.059Z,8.53
2022-12-08T15:10:24.779Z,5.20
2022-12-08T15:13:16.446Z,6.70
2022-12-08T15:16:02.859Z,6.33
2022-12-08T15:19:05.346Z,8.30
2022-12-08T15:21:56.437Z,8.67
2022-12-08T15:24:41.913Z,9.00
2022-12-08T15:27:28.573Z,8.70
2022-12-08T15:30:17.383Z,7.93
2022-12-08T15:33:03.771Z,6.50
2022-12-08T15:35:50.819Z,7.37
2022-12-08T15:38:37.185Z,10.27
2022-12-08T15:41:22.663Z,8.27
2022-12-08T15:44:08.184Z,10.60
2022-12-08T15:46:54.161Z,9.80
2022-12-08T15:49:39.649Z,6.93
2022-12-08T15:52:25.531Z,5.37
2022-12-08T15:55:15.507Z,9.17
2022-12-08T16:01:07.098Z,5.13
2022-12-08T16:04:27.884Z,7.07
2022-12-08T16:07:20.437Z,5.20
2022-12-08T16:11:34.156Z,5.90
2022-12-08T16:14:23.225Z,6.80
2022-12-08T16:16:58.277Z,5.40
2022-12-08T16:19:44.917Z,4.67
2022-12-08T16:26:09.048Z,9.47
2022-12-08T16:28:53.914Z,9.00
2022-12-08T16:31:40.094Z,9.03
2022-12-08T16:34:25.337Z,15.87
2022-12-08T16:37:22.550Z,10.13
2022-12-08T16:40:08.695Z,11.70
2022-12-08T16:42:54.351Z,10.07
2022-12-08T16:45:45.019Z,12.23
2022-12-08T16:48:31.118Z,10.70
2022-12-08T16:51:23.420Z,8.13
2022-12-08T16:54:12.055Z,10.27
2022-12-08T16:56:57.649Z,8.70
2022-12-08T16:59:43.075Z,12.70
2022-12-08T17:02:28.362Z,8.20
2022-12-08T17:05:15.528Z,7.87
2022-12-08T17:08:00.793Z,7.17
2022-12-08T17:11:06.158Z,6.90
2022-12-08T17:13:51.658Z,13.53
2022-12-08T17:16:37.122Z,8.60
2022-12-08T17:19:22.352Z,10.07
2022-12-08T17:22:08.682Z,9.73
2022-12-08T17:24:54.124Z,8.83
2022-12-08T17:27:40.099Z,7.60
2022-12-08T17:30:26.988Z,9.33
2022-12-08T17:33:12.620Z,8.17
2022-12-08T17:35:57.879Z,9.53
2022-12-08T17:38:43.863Z,7.03
2022-12-08T17:41:29.665Z,9.20
2022-12-08T17:44:19.390Z,9.23
2022-12-08T17:47:05.057Z,6.63
2022-12-08T17:49:50.669Z,7.83
2022-12-08T17:52:36.213Z,9.53
2022-12-08T17:55:21.764Z,11.00
2022-12-08T17:58:08.669Z,7.57
2022-12-08T18:00:54.418Z,7.60
2022-12-08T18:03:40.146Z,6.30
2022-12-08T18:06:29.646Z,7.97
2022-12-08T18:09:16.444Z,8.20
2022-12-08T18:12:02.671Z,8.27
2022-12-08T18:14:48.570Z,5.57
2022-12-08T18:17:34.513Z,7.90
2022-12-08T18:20:20.567Z,9.93
2022-12-08T18:23:06.386Z,4.80
2022-12-08T18:25:52.086Z,7.23
2022-12-08T18:28:38.598Z,7.67
2022-12-08T18:31:24.311Z,6.13
2022-12-08T18:34:09.731Z,9.43
2022-12-08T18:36:55.050Z,6.37
2022-12-08T18:39:40.463Z,8.57
2022-12-08T18:42:28.484Z,7.23
2022-12-08T18:45:17.886Z,6.20
2022-12-08T18:48:06.759Z,7.07
2022-12-08T18:50:52.467Z,10.40
2022-12-08T18:53:39.817Z,4.90
2022-12-08T18:56:28.365Z,5.20
2022-12-08T18:59:13.981Z,7.17
2022-12-08T19:02:00.195Z,4.93
2022-12-08T19:04:46.141Z,8.13
2022-12-08T19:07:31.347Z,6.27
2022-12-08T19:10:16.843Z,5.47
2022-12-08T19:13:02.360Z,7.30
2022-12-08T19:15:48.007Z,5.00
2022-12-08T19:18:33.554Z,5.17
2022-12-08T19:21:19.773Z,5.03
2022-12-08T19:24:05.813Z,6.10
2022-12-08T19:26:51.274Z,5.47
2022-12-08T19:29:37.219Z,5.60
2022-12-08T19:32:22.732Z,4.23
2022-12-08T19:35:11.205Z,5.90
2022-12-08T19:37:57.387Z,3.63
2022-12-08T19:41:02.762Z,4.70
2022-12-08T19:44:06.984Z,3.97
2022-12-08T19:46:52.481Z,4.87
2022-12-08T19:49:38.806Z,3.70
2022-12-08T19:52:24.115Z,5.40
2022-12-08T19:55:09.708Z,4.77
2022-12-08T19:57:56.861Z,4.33
2022-12-08T20:00:43.403Z,3.87
2022-12-08T20:03:28.804Z,4.13
2022-12-08T20:06:18.420Z,5.03
2022-12-08T20:09:03.777Z,3.43
2022-12-08T20:11:50.777Z,3.80
2022-12-08T20:14:35.934Z,3.93
2022-12-08T20:17:21.236Z,3.43
2022-12-08T20:20:08.028Z,4.13
2022-12-08T20:22:53.306Z,4.93
2022-12-08T20:25:40.363Z,4.23
2022-12-08T20:28:26.322Z,5.07
2022-12-08T20:31:23.766Z,5.10
2022-12-08T20:34:16.407Z,8.70
2022-12-08T20:37:02.629Z,4.28
2022-12-08T20:39:48.285Z,4.67
2022-12-08T20:42:34.400Z,8.67
2022-12-08T20:45:20.266Z,4.03
2022-12-08T20:48:08.208Z,4.17
2022-12-08T20:51:03.940Z,5.20
2022-12-08T20:53:50.234Z,4.57
2022-12-08T20:56:36.811Z,4.50
2022-12-08T20:59:26.357Z,3.90
2022-12-08T21:02:12.554Z,5.17
2022-12-08T21:04:58.561Z,8.83
2022-12-08T21:07:45.141Z,3.50
2022-12-08T21:10:31.453Z,5.57
2022-12-08T21:13:19.732Z,5.43
2022-12-08T21:16:06.639Z,4.17
2022-12-08T21:18:52.654Z,3.77
2022-12-08T21:21:39.074Z,3.67
2022-12-08T21:24:28.981Z,4.03
2022-12-08T21:27:19.284Z,4.23
2022-12-08T21:30:08.052Z,3.43
2022-12-08T21:32:53.709Z,5.07
2022-12-08T21:35:39.747Z,5.03
2022-12-08T21:38:26.221Z,3.43
2022-12-08T21:41:16.319Z,3.97
2022-12-08T21:44:01.877Z,3.17
2022-12-08T21:46:47.486Z,4.90
2022-12-08T21:49:33.120Z,3.10
2022-12-08T21:52:18.770Z,3.73
2022-12-08T21:55:05.381Z,3.00
2022-12-08T21:57:50.812Z,2.80
2022-12-08T22:00:36.200Z,4.23
2022-12-08T22:03:22.029Z,3.77
2022-12-08T22:06:11.502Z,3.37
2022-12-08T22:08:57.743Z,3.77
2022-12-08T22:11:44.180Z,3.47
2022-12-08T22:14:29.821Z,3.17
2022-12-08T22:17:16.180Z,2.80
2022-12-08T22:20:01.564Z,3.17
2022-12-08T22:22:47.401Z,3.63
2022-12-08T22:25:32.975Z,4.10
2022-12-08T22:28:18.943Z,3.33
2022-12-08T22:31:09.650Z,3.13
2022-12-08T22:33:55.114Z,2.50
2022-12-08T22:36:42.616Z,3.23
2022-12-08T22:39:28.373Z,3.40
2022-12-08T22:42:15.152Z,2.80
2022-12-08T22:45:00.470Z,3.27
2022-12-08T22:47:46.192Z,2.80
2022-12-08T22:50:31.949Z,3.20
2022-12-08T22:53:17.530Z,3.10
2022-12-08T22:56:11.029Z,3.10
2022-12-08T22:58:57.032Z,2.70
2022-12-08T23:01:42.866Z,3.20
2022-12-08T23:04:28.545Z,3.27
2022-12-08T23:07:14.542Z,3.63
2022-12-08T23:10:00.324Z,2.40
2022-12-08T23:12:46.024Z,2.93
2022-12-08T23:15:31.652Z,3.53
2022-12-08T23:18:21.209Z,2.73
2022-12-08T23:21:09.578Z,3.13
2022-12-08T23:23:55.188Z,2.70
2022-12-08T23:26:40.619Z,3.13
2022-12-08T23:29:26.353Z,2.67
2022-12-08T23:32:11.781Z,3.23
2022-12-08T23:34:57.291Z,2.93
2022-12-08T23:37:42.822Z,2.43
2022-12-08T23:40:28.459Z,2.97
2022-12-08T23:43:13.805Z,2.90
2022-12-08T23:45:59.244Z,3.17
2022-12-08T23:48:45.113Z,3.20
2022-12-08T23:51:30.781Z,2.53
2022-12-08T23:54:16.882Z,3.30
2022-12-08T23:57:02.156Z,3.33
2022-12-08T23:59:47.706Z,3.03
